createdAt,value
2023-04-17T00:06:24.325Z,91.20
2023-04-17T00:14:32.363Z,90.70
2023-04-17T00:22:37.902Z,90.50
2023-04-17T00:30:46.163Z,90.40
2023-04-17T00:38:51.639Z,89.80
2023-04-17T00:47:00.194Z,89.60
2023-04-17T00:55:06.651Z,89.00
2023-04-17T01:03:15.038Z,89.60
2023-04-17T01:11:20.588Z,89.00
2023-04-17T01:19:29.606Z,88.90
2023-04-17T01:27:38.190Z,89.00
2023-04-17T01:35:43.842Z,89.50
2023-04-17T01:43:52.056Z,90.10
2023-04-17T01:51:57.587Z,90.20
2023-04-17T02:00:07.478Z,90.70
2023-04-17T02:08:17.929Z,91.10
2023-04-17T02:16:26.193Z,91.40
2023-04-17T02:24:31.798Z,91.90
2023-04-17T02:32:41.727Z,91.60
2023-04-17T02:40:47.291Z,91.40
2023-04-17T02:48:55.508Z,91.30
2023-04-17T02:57:02.041Z,91.30
2023-04-17T03:05:11.742Z,91.80
2023-04-17T03:13:17.298Z,92.20
2023-04-17T03:21:25.423Z,91.90
2023-04-17T03:29:31.526Z,91.60
2023-04-17T03:37:39.838Z,91.50
2023-04-17T03:45:45.594Z,91.00
2023-04-17T03:53:53.759Z,91.00
2023-04-17T04:01:59.383Z,91.20
2023-04-17T04:10:11.137Z,91.10
2023-04-17T04:18:17.926Z,90.90
2023-04-17T04:26:27.481Z,90.70
2023-04-17T04:34:36.662Z,91.20
2023-04-17T04:42:50.040Z,90.90
2023-04-17T04:51:07.601Z,90.70
2023-04-17T04:59:15.929Z,91.10
2023-04-17T05:07:27.625Z,90.90
2023-04-17T05:15:36.931Z,90.80
2023-04-17T05:23:43.004Z,91.50
2023-04-17T05:31:52.320Z,91.10
2023-04-17T05:40:16.441Z,91.90
2023-04-17T05:48:24.642Z,91.30
2023-04-17T05:56:32.522Z,91.70
2023-04-17T06:04:42.000Z,92.20
2023-04-17T06:12:47.946Z,92.00
2023-04-17T06:20:56.040Z,92.40
2023-04-17T06:29:01.590Z,91.90
2023-04-17T06:37:12.432Z,91.40
2023-04-17T06:45:18.870Z,91.40
2023-04-17T06:53:27.438Z,91.60
2023-04-17T07:01:33.048Z,91.30
2023-04-17T07:09:43.217Z,91.00
2023-04-17T07:17:48.747Z,89.80
2023-04-17T07:25:56.826Z,87.80
2023-04-17T07:34:02.298Z,83.70
2023-04-17T07:42:11.653Z,82.40
2023-04-17T07:50:17.481Z,82.70
2023-04-17T07:58:27.328Z,83.50
2023-04-17T08:06:32.753Z,82.30
2023-04-17T08:14:41.092Z,80.10
2023-04-17T08:22:48.957Z,80.50
2023-04-17T08:30:57.342Z,79.30
2023-04-17T08:39:02.842Z,79.90
2023-04-17T08:47:11.022Z,77.80
2023-04-17T08:55:17.896Z,78.80
2023-04-17T09:03:26.163Z,80.40
2023-04-17T09:11:31.796Z,77.00
2023-04-17T09:19:39.912Z,74.90
2023-04-17T09:27:45.516Z,71.80
2023-04-17T09:35:53.611Z,70.90
2023-04-17T09:44:02.231Z,68.00
2023-04-17T09:52:10.659Z,65.50
2023-04-17T10:00:17.776Z,67.60
2023-04-17T10:08:26.255Z,68.40
2023-04-17T10:16:39.246Z,69.50
2023-04-17T10:24:47.658Z,67.90
2023-04-17T10:33:25.949Z,69.40
2023-04-17T10:41:35.663Z,65.60
2023-04-17T10:49:52.129Z,64.40
2023-04-17T10:58:03.911Z,61.10
2023-04-17T11:06:10.513Z,62.80
2023-04-17T11:14:20.223Z,64.60
2023-04-17T11:22:25.809Z,67.90
2023-04-17T11:30:35.445Z,72.20
2023-04-17T11:38:49.104Z,76.10
2023-04-17T11:46:59.244Z,74.90
2023-04-17T11:55:04.806Z,70.70
2023-04-17T12:03:38.335Z,63.70
2023-04-17T12:11:43.844Z,55.20
2023-04-17T12:19:52.166Z,48.50
2023-04-17T12:27:59.467Z,38.10
2023-04-17T12:36:09.093Z,36.50
2023-04-17T12:44:15.023Z,33.60
2023-04-17T12:52:23.332Z,32.70
2023-04-17T13:00:28.968Z,32.20
2023-04-17T13:08:37.142Z,34.60
2023-04-17T13:16:42.580Z,38.50
2023-04-17T13:24:50.682Z,46.40
2023-04-17T13:32:56.175Z,52.70
2023-04-17T13:41:04.413Z,56.20
2023-04-17T13:49:10.531Z,58.40
2023-04-17T13:57:19.771Z,60.50
2023-04-17T14:05:26.963Z,61.50
2023-04-17T14:13:35.014Z,62.20
2023-04-17T14:21:40.535Z,64.20
2023-04-17T14:29:48.723Z,66.40
2023-04-17T14:37:54.192Z,66.60
2023-04-17T14:46:02.457Z,67.10
2023-04-17T14:54:08.627Z,66.70
2023-04-17T15:02:16.902Z,64.60
2023-04-17T15:10:22.447Z,63.90
2023-04-17T15:18:30.510Z,66.80
2023-04-17T15:26:36.051Z,68.30
2023-04-17T15:34:44.242Z,69.50
2023-04-17T15:42:49.757Z,71.20
2023-04-17T15:50:57.824Z,75.80
2023-04-17T15:59:03.327Z,78.40
2023-04-17T16:07:11.879Z,79.30
2023-04-17T16:15:20.047Z,81.80
2023-04-17T16:23:28.149Z,82.00
2023-04-17T16:31:33.626Z,81.20
2023-04-17T16:39:41.928Z,81.00
2023-04-17T16:47:47.461Z,80.70
2023-04-17T16:55:56.999Z,79.90
2023-04-17T17:04:02.641Z,80.70
2023-04-17T17:12:11.290Z,82.20
2023-04-17T17:20:16.964Z,83.70
2023-04-17T17:28:25.083Z,84.20
2023-04-17T17:36:31.576Z,84.50
2023-04-17T17:44:39.816Z,83.80
2023-04-17T17:52:45.310Z,84.40
2023-04-17T18:00:53.979Z,85.80
2023-04-17T18:08:59.925Z,86.30
2023-04-17T18:17:07.881Z,86.10
2023-04-17T18:25:15.307Z,86.00
2023-04-17T18:33:23.962Z,87.50
2023-04-17T18:41:29.869Z,87.30
2023-04-17T18:49:37.968Z,86.80
2023-04-17T18:57:43.537Z,87.70
2023-04-17T19:05:51.633Z,85.40
2023-04-17T19:13:57.269Z,85.00
2023-04-17T19:22:05.456Z,84.50
2023-04-17T19:30:12.467Z,84.20
2023-04-17T19:38:20.583Z,83.60
2023-04-17T19:46:28.009Z,82.30
2023-04-17T19:54:36.071Z,81.50
2023-04-17T20:02:41.719Z,80.20
2023-04-17T20:10:52.962Z,80.00
2023-04-17T20:18:58.603Z,78.30
2023-04-17T20:27:06.861Z,77.20
2023-04-17T20:35:13.452Z,76.70
2023-04-17T20:43:21.527Z,78.50
2023-04-17T20:51:28.080Z,78.80
2023-04-17T20:59:37.487Z,79.60
2023-04-17T21:07:42.902Z,80.20
2023-04-17T21:15:54.688Z,81.20
2023-04-17T21:24:00.289Z,79.70
2023-04-17T21:32:08.667Z,80.20
2023-04-17T21:40:15.454Z,80.20
2023-04-17T21:48:23.766Z,77.90
2023-04-17T21:56:29.232Z,78.60
2023-04-17T22:04:37.344Z,78.60
2023-04-17T22:12:42.800Z,78.10
2023-04-17T22:20:50.953Z,78.40
2023-04-17T22:28:56.371Z,79.10
2023-04-17T22:37:04.392Z,79.10
2023-04-17T22:45:10.763Z,78.10
2023-04-17T22:53:18.868Z,79.00
2023-04-17T23:01:24.405Z,76.60
2023-04-17T23:09:32.504Z,77.60
2023-04-17T23:17:38.066Z,76.70
2023-04-17T23:25:46.335Z,77.60
2023-04-17T23:33:51.736Z,78.30
2023-04-17T23:42:00.832Z,77.20
2023-04-17T23:50:06.466Z,78.80
2023-04-17T23:58:14.939Z,76.50
